Time;durP1;ratioP1;P1;durP2;ratioP2;P2;SDS_P1;SDS_P2;PMS_P1;PMS_P2;Temp;Humidity;BMP_temperature;BMP_pressure;BME280_temperature;BME280_humidity;BME280_pressure;Samples;Min_cycle;Max_cycle;Signal;HPM_P1;HPM_P2
2022/07/06 00:01:25;;;;;;;4.18;0.70;;;19.20;85.40;;;;;;5056067;28;20059;-67
2022/07/06 00:03:51;;;;;;;1.95;0.60;;;19.10;85.20;;;;;;5056390;28;20041;-66
2022/07/06 00:06:17;;;;;;;1.88;0.65;;;19.00;85.50;;;;;;5056229;28;20051;-66
2022/07/06 00:08:43;;;;;;;1.60;0.50;;;19.10;84.60;;;;;;5056430;28;20392;-69
2022/07/06 00:11:10;;;;;;;3.00;0.65;;;19.00;84.00;;;;;;5056210;28;20528;-67
2022/07/06 00:13:36;;;;;;;1.58;0.75;;;19.00;84.20;;;;;;5056067;28;20082;-67
2022/07/06 00:16:02;;;;;;;2.38;0.65;;;19.20;82.90;;;;;;5053610;28;20049;-68
2022/07/06 00:18:28;;;;;;;3.22;0.70;;;19.30;82.10;;;;;;5055739;28;20500;-69
2022/07/06 00:20:54;;;;;;;5.03;0.80;;;19.20;82.40;;;;;;5055837;28;20052;-68
2022/07/06 00:23:19;;;;;;;3.40;0.60;;;19.10;83.10;;;;;;5055946;28;20072;-69
2022/07/06 00:25:45;;;;;;;1.95;0.60;;;19.00;83.20;;;;;;5055764;28;20087;-68
2022/07/06 00:28:11;;;;;;;3.80;0.70;;;19.00;82.60;;;;;;5055691;28;20060;-69
2022/07/06 00:30:37;;;;;;;3.63;0.95;;;19.00;82.10;;;;;;5055633;28;20064;-68
2022/07/06 00:33:03;;;;;;;2.63;0.70;;;19.10;82.00;;;;;;5055608;28;20101;-68
2022/07/06 00:35:28;;;;;;;6.90;0.65;;;19.00;82.70;;;;;;5055639;28;20052;-68
2022/07/06 00:37:54;;;;;;;2.08;0.75;;;19.00;82.00;;;;;;5055795;28;20086;-67
2022/07/06 00:40:21;;;;;;;2.72;0.80;;;19.00;82.50;;;;;;5055746;28;20051;-70
2022/07/06 00:42:48;;;;;;;1.17;0.60;;;18.90;82.50;;;;;;5055458;28;20145;-70
2022/07/06 00:45:16;;;;;;;4.18;0.80;;;18.90;82.50;;;;;;5055404;28;20048;-70
2022/07/06 00:47:43;;;;;;;8.00;1.00;;;19.00;81.90;;;;;;5055349;28;20033;-70
2022/07/06 00:50:21;;;;;;;4.53;1.05;;;19.10;81.40;;;;;;5055671;28;20493;-69
2022/07/06 00:52:48;;;;;;;5.65;0.95;;;19.10;81.30;;;;;;5055392;28;20045;-69
2022/07/06 00:55:16;;;;;;;4.32;0.63;;;19.10;81.40;;;;;;5055280;28;20496;-70
2022/07/06 00:57:43;;;;;;;6.97;1.00;;;19.00;81.60;;;;;;5054995;28;20456;-70
2022/07/06 01:00:12;;;;;;;1.52;0.60;;;18.90;81.90;;;;;;5054967;28;20072;-70
2022/07/06 01:02:37;;;;;;;3.63;1.00;;;18.80;81.90;;;;;;5055073;28;20051;-72
2022/07/06 01:05:05;;;;;;;3.00;0.80;;;19.00;81.10;;;;;;5055177;28;20131;-67
2022/07/06 01:07:31;;;;;;;4.63;1.40;;;19.00;80.80;;;;;;5055028;28;20181;-70
2022/07/06 01:09:57;;;;;;;2.38;0.90;;;18.90;81.40;;;;;;5055013;28;20515;-70
2022/07/06 01:12:24;;;;;;;4.38;0.75;;;19.00;80.60;;;;;;5054778;28;20033;-70
2022/07/06 01:14:50;;;;;;;2.00;0.77;;;19.10;81.00;;;;;;5054988;28;20041;-69
2022/07/06 01:17:17;;;;;;;3.72;1.30;;;18.90;81.20;;;;;;5054716;28;20098;-70
2022/07/06 01:19:43;;;;;;;6.50;1.25;;;18.80;81.10;;;;;;5054764;28;20412;-69
2022/07/06 01:22:10;;;;;;;3.97;0.90;;;18.90;81.10;;;;;;5054827;28;20033;-70
2022/07/06 01:24:36;;;;;;;5.85;0.85;;;18.80;81.40;;;;;;5054778;28;20446;-67
2022/07/06 01:27:04;;;;;;;6.32;1.25;;;18.80;81.10;;;;;;5054288;28;20114;-68
2022/07/06 01:29:31;;;;;;;2.42;0.90;;;18.80;81.30;;;;;;5054578;28;20119;-68
2022/07/06 01:31:57;;;;;;;6.72;1.10;;;18.80;80.80;;;;;;5054917;28;20161;-68
2022/07/06 01:34:23;;;;;;;4.82;0.90;;;;;;;;;;5054614;28;20551;-68
2022/07/06 01:36:49;;;;;;;5.82;0.82;;;18.70;86.20;;;;;;5054591;28;20127;-67
2022/07/06 01:39:15;;;;;;;10.20;2.45;;;18.80;81.60;;;;;;5054581;28;20072;-69
2022/07/06 01:41:41;;;;;;;4.72;1.10;;;18.80;81.20;;;;;;5054262;28;20076;-69
2022/07/06 01:44:08;;;;;;;3.50;0.98;;;18.80;81.20;;;;;;5054231;28;20025;-67
2022/07/06 01:46:34;;;;;;;7.45;1.00;;;18.70;81.60;;;;;;5054446;28;20076;-68
2022/07/06 01:49:00;;;;;;;2.72;1.10;;;18.80;81.80;;;;;;5054214;28;20399;-67
2022/07/06 01:51:26;;;;;;;6.00;1.20;;;18.60;82.40;;;;;;5054288;28;20506;-67
2022/07/06 01:53:52;;;;;;;4.53;1.00;;;;;;;;;;5052911;28;20044;-66
2022/07/06 01:56:19;;;;;;;11.20;1.50;;;18.60;82.40;;;;;;5054771;28;20533;-67
2022/07/06 01:58:46;;;;;;;7.38;1.40;;;18.60;83.10;;;;;;5054312;28;20102;-67
2022/07/06 02:01:16;;;;;;;9.25;1.20;;;18.70;83.00;;;;;;5054202;28;20048;-66
2022/07/06 02:03:42;;;;;;;1.83;1.00;;;18.60;83.40;;;;;;5054137;28;20086;-66
2022/07/06 02:06:08;;;;;;;4.28;1.58;;;18.60;83.30;;;;;;5054091;28;20044;-66
2022/07/06 02:08:35;;;;;;;4.13;1.10;;;18.60;83.60;;;;;;5054043;28;20040;-67
2022/07/06 02:11:03;;;;;;;8.10;1.20;;;18.50;83.80;;;;;;5054054;28;20067;-68
2022/07/06 02:13:29;;;;;;;8.90;1.67;;;18.60;84.00;;;;;;5054065;28;20120;-68
2022/07/06 02:15:54;;;;;;;5.63;0.93;;;18.50;84.40;;;;;;5054033;28;20128;-68
2022/07/06 02:18:20;;;;;;;2.97;0.90;;;18.60;84.20;;;;;;5052643;28;20063;-68
2022/07/06 02:20:46;;;;;;;6.97;1.13;;;18.50;84.70;;;;;;5053924;28;20403;-68
2022/07/06 02:23:12;;;;;;;7.32;0.85;;;18.50;84.70;;;;;;5053752;28;20045;-69
2022/07/06 02:25:38;;;;;;;4.00;1.27;;;18.50;84.80;;;;;;5053864;28;20037;-66
2022/07/06 02:28:04;;;;;;;6.72;0.90;;;18.40;85.00;;;;;;5053898;28;20099;-66
2022/07/06 02:30:30;;;;;;;3.13;0.82;;;18.40;84.80;;;;;;5053893;28;20086;-65
2022/07/06 02:32:56;;;;;;;5.68;1.30;;;18.40;85.10;;;;;;5053920;28;20033;-66
2022/07/06 02:35:22;;;;;;;9.93;1.10;;;18.50;85.00;;;;;;5053772;28;20045;-65
2022/07/06 02:37:48;;;;;;;3.63;0.98;;;18.40;85.20;;;;;;5053683;28;20029;-66
2022/07/06 02:40:13;;;;;;;6.68;1.20;;;18.50;84.80;;;;;;5056051;28;20053;-65
2022/07/06 02:42:39;;;;;;;3.88;1.23;;;18.50;84.80;;;;;;5057655;28;20083;-67
2022/07/06 02:45:05;;;;;;;1.77;0.85;;;18.40;85.00;;;;;;5057741;28;20047;-67
2022/07/06 02:47:31;;;;;;;7.25;1.80;;;18.40;85.00;;;;;;5057724;28;20083;-66
2022/07/06 02:49:57;;;;;;;2.58;1.20;;;18.30;85.20;;;;;;5057769;28;20424;-66
2022/07/06 02:52:23;;;;;;;4.00;0.90;;;18.40;85.00;;;;;;5057487;28;20427;-64
2022/07/06 02:54:49;;;;;;;4.43;0.90;;;18.30;85.10;;;;;;5057545;28;20127;-64
2022/07/06 02:57:16;;;;;;;4.30;0.93;;;18.40;85.00;;;;;;5057335;28;20033;-64
2022/07/06 02:59:42;;;;;;;3.00;0.82;;;18.50;84.70;;;;;;5057495;28;20033;-64
2022/07/06 03:02:08;;;;;;;7.75;1.13;;;18.40;84.90;;;;;;5057454;28;20108;-65
2022/07/06 03:04:34;;;;;;;4.03;1.10;;;18.30;84.80;;;;;;5057404;28;20065;-65
2022/07/06 03:07:00;;;;;;;5.80;0.90;;;18.30;84.90;;;;;;5057156;28;20055;-64
2022/07/06 03:09:26;;;;;;;3.38;1.00;;;18.30;85.10;;;;;;5057169;28;20044;-65
2022/07/06 03:11:52;;;;;;;4.18;1.00;;;18.30;84.70;;;;;;5057327;28;20060;-67
2022/07/06 03:14:19;;;;;;;1.92;0.80;;;18.40;84.50;;;;;;5057461;28;20392;-67
2022/07/06 03:16:45;;;;;;;2.60;1.00;;;18.40;84.70;;;;;;5056993;28;20040;-69
2022/07/06 03:19:11;;;;;;;4.20;0.98;;;18.30;84.50;;;;;;5057148;28;20075;-66
2022/07/06 03:21:36;;;;;;;5.30;1.00;;;18.30;84.70;;;;;;5056869;28;20049;-67
2022/07/06 03:24:02;;;;;;;6.85;1.13;;;18.20;84.60;;;;;;5056907;28;20037;-67
2022/07/06 03:26:28;;;;;;;5.35;1.23;;;18.20;84.70;;;;;;5076249;28;20043;-66
2022/07/06 03:28:54;;;;;;;4.70;1.17;;;18.20;84.90;;;;;;5076932;28;20044;-66
2022/07/06 03:31:20;;;;;;;4.70;1.15;;;18.10;85.00;;;;;;5076895;28;20041;-69
2022/07/06 03:33:45;;;;;;;8.48;1.13;;;18.30;84.70;;;;;;5076685;28;20144;-68
2022/07/06 03:36:11;;;;;;;2.88;1.00;;;18.10;85.30;;;;;;5076627;28;20059;-68
2022/07/06 03:38:37;;;;;;;3.63;1.08;;;18.10;85.50;;;;;;5076741;28;20403;-69
2022/07/06 03:41:03;;;;;;;2.20;0.80;;;18.00;85.50;;;;;;5076755;28;20044;-67
2022/07/06 03:43:30;;;;;;;4.38;0.80;;;18.00;85.50;;;;;;5076676;28;20043;-68
2022/07/06 03:45:56;;;;;;;1.80;0.75;;;18.00;85.70;;;;;;5076536;28;20383;-67
2022/07/06 03:48:22;;;;;;;5.15;1.02;;;18.00;85.80;;;;;;5059528;28;20029;-67
2022/07/06 03:50:48;;;;;;;6.68;1.10;;;18.00;85.60;;;;;;5056243;28;20128;-68
2022/07/06 03:53:13;;;;;;;2.75;0.95;;;18.00;85.50;;;;;;5056527;28;20128;-68
2022/07/06 03:55:39;;;;;;;6.53;1.27;;;18.00;85.50;;;;;;5056490;28;20493;-67
2022/07/06 03:58:05;;;;;;;4.57;0.95;;;18.00;85.40;;;;;;5056261;28;20033;-70
2022/07/06 04:00:30;;;;;;;6.00;0.90;;;17.90;85.50;;;;;;5056195;28;20052;-68
2022/07/06 04:02:56;;;;;;;4.55;1.02;;;17.90;85.50;;;;;;5056113;28;20091;-68
2022/07/06 04:05:22;;;;;;;3.42;1.02;;;18.00;85.40;;;;;;5055982;28;20091;-67
2022/07/06 04:07:49;;;;;;;8.30;1.00;;;17.90;85.50;;;;;;5056109;28;20044;-67
2022/07/06 04:10:15;;;;;;;5.60;0.98;;;18.00;85.40;;;;;;5056041;28;20496;-70
2022/07/06 04:12:42;;;;;;;3.83;0.90;;;18.00;85.60;;;;;;5056117;28;20033;-67
2022/07/06 04:15:08;;;;;;;5.60;1.20;;;17.90;85.60;;;;;;5056017;28;20044;-71
2022/07/06 04:17:52;;;;;;;4.57;0.95;;;17.90;85.70;;;;;;5055991;28;20522;-68
2022/07/06 04:20:18;;;;;;;2.95;0.90;;;17.90;85.70;;;;;;5055938;28;20049;-68
2022/07/06 04:22:44;;;;;;;2.15;0.95;;;17.90;85.80;;;;;;5055941;28;20032;-67
2022/07/06 04:25:10;;;;;;;3.40;0.80;;;17.80;85.70;;;;;;5055685;28;20071;-67
2022/07/06 04:27:36;;;;;;;3.00;1.60;;;17.80;85.80;;;;;;5054616;28;20141;-68
2022/07/06 04:30:04;;;;;;;4.78;1.15;;;17.90;85.70;;;;;;5055640;28;20039;-67
2022/07/06 04:32:30;;;;;;;9.02;0.90;;;17.80;85.90;;;;;;5055425;28;20507;-66
2022/07/06 04:34:56;;;;;;;3.30;0.88;;;17.90;85.60;;;;;;5055719;28;20121;-66
2022/07/06 04:37:22;;;;;;;6.97;0.93;;;17.90;86.00;;;;;;5055652;28;20067;-67
2022/07/06 04:39:48;;;;;;;3.03;1.10;;;17.80;85.90;;;;;;5055595;28;20148;-70
2022/07/06 04:42:13;;;;;;;21.45;1.20;;;17.80;86.00;;;;;;5055332;28;20516;-69
2022/07/06 04:44:39;;;;;;;7.07;0.70;;;17.80;86.00;;;;;;5055339;28;20090;-70
2022/07/06 04:47:05;;;;;;;3.05;0.80;;;17.80;86.20;;;;;;5055124;28;20049;-70
2022/07/06 04:49:31;;;;;;;3.80;0.70;;;17.90;86.40;;;;;;5055250;28;20500;-69
2022/07/06 04:51:56;;;;;;;1.33;0.95;;;17.90;86.70;;;;;;5055328;28;20043;-67
2022/07/06 04:54:22;;;;;;;2.42;1.63;;;18.00;86.40;;;;;;5055180;28;20033;-68
2022/07/06 04:56:48;;;;;;;4.72;1.08;;;18.00;86.30;;;;;;5055238;28;20122;-67
2022/07/06 04:59:14;;;;;;;3.00;0.88;;;18.00;86.10;;;;;;5055319;28;20108;-67
2022/07/06 05:01:40;;;;;;;2.97;1.10;;;18.00;86.70;;;;;;5054412;28;20049;-67
2022/07/06 05:04:06;;;;;;;4.38;0.90;;;18.10;86.70;;;;;;5053708;28;20119;-67
2022/07/06 05:06:32;;;;;;;3.70;0.77;;;18.10;86.80;;;;;;5055134;28;20098;-67
2022/07/06 05:09:01;;;;;;;1.73;0.90;;;18.10;86.50;;;;;;5055087;28;20028;-67
2022/07/06 05:11:27;;;;;;;3.10;0.85;;;18.20;86.90;;;;;;5055050;28;20041;-67
2022/07/06 05:13:54;;;;;;;4.43;1.10;;;18.20;86.80;;;;;;5054798;28;20125;-67
2022/07/06 05:16:20;;;;;;;5.35;0.90;;;18.40;87.30;;;;;;5054769;28;20044;-67
2022/07/06 05:18:46;;;;;;;1.70;0.90;;;18.30;87.00;;;;;;5054812;28;20033;-67
2022/07/06 05:21:12;;;;;;;6.68;1.27;;;18.40;86.80;;;;;;5054682;28;20053;-67
2022/07/06 05:23:38;;;;;;;5.88;2.03;;;18.50;86.40;;;;;;5054716;28;20037;-67
2022/07/06 05:26:03;;;;;;;1.40;0.80;;;18.60;86.50;;;;;;5054752;28;20132;-67
2022/07/06 05:28:29;;;;;;;5.70;1.00;;;18.60;86.90;;;;;;5054698;28;20464;-67
2022/07/06 05:30:55;;;;;;;20.63;1.40;;;18.70;86.50;;;;;;5054474;28;20076;-67
2022/07/06 05:33:20;;;;;;;1.48;1.00;;;18.70;86.90;;;;;;5053289;28;20064;-67
2022/07/06 05:35:46;;;;;;;4.53;0.90;;;18.70;87.10;;;;;;5054539;28;20079;-67
2022/07/06 05:38:12;;;;;;;1.20;0.80;;;18.80;87.40;;;;;;5054561;28;20056;-67
2022/07/06 05:40:38;;;;;;;5.68;1.00;;;19.00;87.00;;;;;;5054387;28;20052;-67
2022/07/06 05:43:04;;;;;;;2.13;1.17;;;19.00;87.00;;;;;;5054145;28;20037;-67
2022/07/06 05:45:29;;;;;;;2.75;0.90;;;19.10;87.30;;;;;;5054173;28;20049;-67
2022/07/06 05:50:40;;;;;;;5.35;1.25;;;19.30;86.40;;;;;;5054095;28;20071;-67
2022/07/06 05:53:07;;;;;;;3.67;1.00;;;19.30;86.80;;;;;;5054153;28;20021;-67
2022/07/06 05:55:33;;;;;;;1.63;0.88;;;19.60;87.10;;;;;;5054333;28;20044;-67
2022/07/06 05:57:58;;;;;;;3.75;0.98;;;19.50;86.50;;;;;;5054082;28;20033;-67
2022/07/06 06:00:26;;;;;;;2.83;1.23;;;19.60;87.10;;;;;;5054165;28;20044;-67
2022/07/06 06:02:52;;;;;;;3.63;1.00;;;19.60;87.00;;;;;;5054210;28;20079;-67
2022/07/06 06:05:19;;;;;;;3.08;0.95;;;19.70;87.60;;;;;;5054143;28;20048;-67
2022/07/06 06:07:50;;;;;;;2.47;1.10;;;19.60;87.40;;;;;;5054044;28;20033;-67
2022/07/06 06:10:15;;;;;;;5.53;0.95;;;19.80;88.00;;;;;;5054124;28;20036;-67
2022/07/06 06:12:42;;;;;;;2.88;0.93;;;19.80;87.60;;;;;;5053486;28;20070;-67
2022/07/06 06:15:08;;;;;;;5.25;1.38;;;19.80;88.30;;;;;;5053660;28;20045;-67
2022/07/06 06:17:35;;;;;;;4.97;1.10;;;19.80;88.30;;;;;;5053868;28;20085;-67
2022/07/06 06:20:02;;;;;;;2.47;1.00;;;19.90;87.90;;;;;;5053780;28;20056;-67
2022/07/06 06:22:28;;;;;;;8.32;1.67;;;19.90;88.90;;;;;;5054004;28;20508;-67
2022/07/06 06:24:54;;;;;;;4.28;1.35;;;20.00;87.90;;;;;;5053919;28;20044;-67
2022/07/06 06:27:19;;;;;;;3.00;0.90;;;20.00;88.50;;;;;;5054058;28;20037;-67
2022/07/06 06:29:45;;;;;;;4.35;1.15;;;19.90;88.70;;;;;;5053831;28;20037;-67
2022/07/06 06:32:11;;;;;;;3.83;1.00;;;20.00;88.10;;;;;;5053190;28;20047;-67
2022/07/06 06:34:38;;;;;;;3.08;1.20;;;20.10;88.90;;;;;;5053451;28;20044;-67
2022/07/06 06:37:04;;;;;;;3.70;1.00;;;20.20;89.20;;;;;;5051294;28;20051;-67
2022/07/06 06:39:30;;;;;;;4.80;1.60;;;20.10;89.30;;;;;;5051768;28;20045;-67
2022/07/06 06:41:56;;;;;;;2.55;0.95;;;20.50;90.10;;;;;;5052599;28;20561;-67
2022/07/06 06:44:24;;;;;;;3.80;1.23;;;20.60;90.10;;;;;;5053285;28;20041;-67
2022/07/06 06:46:54;;;;;;;2.72;1.10;;;20.70;89.80;;;;;;5053668;28;20120;-67
2022/07/06 06:49:20;;;;;;;5.40;0.85;;;20.80;89.00;;;;;;5053514;28;20041;-67
2022/07/06 06:51:45;;;;;;;7.20;1.10;;;20.90;90.30;;;;;;5053638;28;20480;-67
2022/07/06 06:54:11;;;;;;;8.80;1.02;;;21.00;88.80;;;;;;5053510;28;20049;-67
2022/07/06 06:56:37;;;;;;;3.15;1.10;;;21.10;89.40;;;;;;5053593;28;20557;-67
2022/07/06 06:59:03;;;;;;;1.77;0.90;;;20.60;87.90;;;;;;5053552;28;20103;-67
2022/07/06 07:01:29;;;;;;;2.53;1.48;;;20.50;88.90;;;;;;5064123;28;20124;-67
2022/07/06 07:03:55;;;;;;;3.92;0.85;;;20.70;89.90;;;;;;5073397;28;20048;-67
2022/07/06 07:06:22;;;;;;;4.72;1.25;;;21.10;89.40;;;;;;5073379;28;20429;-67
2022/07/06 07:08:48;;;;;;;1.63;1.00;;;21.00;89.40;;;;;;5073355;28;20075;-67
2022/07/06 07:11:14;;;;;;;3.60;1.13;;;20.90;88.90;;;;;;5073340;28;20174;-67
2022/07/06 07:13:40;;;;;;;1.77;1.00;;;21.00;89.80;;;;;;5073484;28;20123;-67
2022/07/06 07:16:06;;;;;;;2.55;1.20;;;21.20;88.30;;;;;;5073480;28;20040;-67
2022/07/06 07:18:32;;;;;;;2.38;1.45;;;21.30;88.30;;;;;;5073535;28;20047;-67
2022/07/06 07:20:58;;;;;;;3.33;1.23;;;21.30;89.00;;;;;;5073386;28;20173;-67
2022/07/06 07:23:24;;;;;;;3.53;1.20;;;21.50;90.10;;;;;;5073344;28;20067;-67
2022/07/06 07:25:49;;;;;;;1.92;1.10;;;21.20;88.60;;;;;;5076028;28;20052;-67
2022/07/06 07:28:15;;;;;;;8.25;1.17;;;21.40;90.00;;;;;;5076988;28;20090;-67
2022/07/06 07:30:41;;;;;;;3.40;1.25;;;21.20;88.50;;;;;;5076920;28;20143;-67
2022/07/06 07:33:07;;;;;;;2.00;0.88;;;21.40;88.30;;;;;;5076914;28;20044;-67
2022/07/06 07:35:33;;;;;;;5.80;1.23;;;21.40;87.40;;;;;;5076866;28;20040;-67
2022/07/06 07:37:59;;;;;;;3.47;1.52;;;21.50;87.20;;;;;;5076693;28;20044;-67
2022/07/06 07:40:24;;;;;;;4.20;1.20;;;21.60;88.50;;;;;;5076772;28;20056;-67
2022/07/06 07:42:50;;;;;;;4.25;1.08;;;21.70;87.50;;;;;;5076738;28;20044;-67
2022/07/06 07:45:16;;;;;;;6.72;1.33;;;21.30;87.50;;;;;;5075654;28;20047;-67
2022/07/06 07:47:43;;;;;;;4.63;1.33;;;21.40;88.30;;;;;;5058407;28;20124;-67
2022/07/06 07:50:09;;;;;;;1.50;0.90;;;21.70;88.00;;;;;;5056189;28;20489;-67
2022/07/06 07:52:35;;;;;;;2.70;1.30;;;21.80;87.50;;;;;;5056359;28;20063;-67
2022/07/06 07:55:00;;;;;;;2.92;1.27;;;21.80;87.70;;;;;;5056448;28;20072;-67
2022/07/06 07:57:26;;;;;;;3.60;1.10;;;22.00;86.20;;;;;;5056637;28;20032;-67
2022/07/06 07:59:52;;;;;;;2.00;1.20;;;22.00;86.60;;;;;;5056255;28;20052;-67
2022/07/06 08:02:18;;;;;;;7.82;1.00;;;22.10;86.90;;;;;;5056418;28;20029;-67
2022/07/06 08:04:43;;;;;;;6.00;1.10;;;22.20;86.40;;;;;;5056235;28;20051;-68
2022/07/06 08:07:09;;;;;;;2.92;1.25;;;22.50;87.10;;;;;;5056213;28;20040;-67
2022/07/06 08:09:35;;;;;;;1.90;0.82;;;22.20;86.20;;;;;;5056330;28;20083;-67
2022/07/06 08:12:01;;;;;;;13.25;1.10;;;22.50;85.80;;;;;;5056245;28;20086;-67
2022/07/06 08:14:27;;;;;;;6.45;1.40;;;22.70;86.60;;;;;;5056170;28;20041;-67
2022/07/06 08:16:52;;;;;;;4.60;0.95;;;22.70;86.40;;;;;;5056100;28;20039;-67
2022/07/06 08:19:18;;;;;;;4.28;1.20;;;22.40;84.40;;;;;;5055834;28;20033;-68
2022/07/06 08:21:44;;;;;;;1.98;1.15;;;22.20;84.10;;;;;;5055732;28;20148;-67
2022/07/06 08:24:11;;;;;;;5.28;1.05;;;22.10;85.40;;;;;;5056007;28;20033;-67
2022/07/06 08:26:36;;;;;;;4.93;1.20;;;22.10;85.40;;;;;;5055843;28;20071;-67
2022/07/06 08:29:03;;;;;;;3.15;1.27;;;22.50;86.40;;;;;;5055737;28;20040;-67
2022/07/06 08:31:29;;;;;;;2.80;1.13;;;22.80;86.70;;;;;;5055637;28;20378;-67
2022/07/06 08:33:55;;;;;;;3.13;1.30;;;22.60;83.50;;;;;;5055651;28;20502;-67
2022/07/06 08:36:21;;;;;;;5.30;1.17;;;22.20;83.40;;;;;;5054734;28;20389;-67
2022/07/06 08:38:48;;;;;;;1.50;0.90;;;22.00;82.90;;;;;;5055581;28;20040;-67
2022/07/06 08:41:15;;;;;;;7.38;1.15;;;21.90;82.90;;;;;;5055557;28;20058;-67
2022/07/06 08:43:42;;;;;;;2.40;1.10;;;22.10;83.80;;;;;;5055650;28;20408;-67
2022/07/06 08:46:08;;;;;;;1.50;0.80;;;22.20;84.90;;;;;;5055599;28;20090;-67
2022/07/06 08:48:38;;;;;;;2.30;1.15;;;22.10;84.30;;;;;;5055401;28;20045;-67
2022/07/06 08:51:05;;;;;;;8.10;1.20;;;22.20;83.90;;;;;;5055475;28;20419;-67
2022/07/06 08:53:31;;;;;;;2.38;1.13;;;22.40;84.60;;;;;;5055229;28;20519;-67
2022/07/06 08:55:57;;;;;;;2.17;1.00;;;22.00;83.50;;;;;;5055247;28;20069;-67
2022/07/06 08:58:27;;;;;;;1.48;0.85;;;22.20;84.30;;;;;;5055282;28;20484;-67
2022/07/06 09:00:57;;;;;;;7.97;1.30;;;22.30;82.30;;;;;;5055075;28;20094;-67
2022/07/06 09:03:23;;;;;;;4.47;1.30;;;22.30;82.40;;;;;;5054973;28;20036;-68
2022/07/06 09:05:50;;;;;;;2.65;1.02;;;21.90;81.40;;;;;;5055117;28;20106;-67
2022/07/06 09:08:17;;;;;;;2.08;0.80;;;22.10;83.70;;;;;;5055157;28;20033;-67
2022/07/06 09:10:43;;;;;;;2.85;1.00;;;22.20;83.90;;;;;;5055297;28;20071;-68
2022/07/06 09:13:09;;;;;;;4.15;1.20;;;22.20;82.90;;;;;;5054821;28;20036;-67
2022/07/06 09:15:40;;;;;;;5.65;1.30;;;22.20;83.10;;;;;;5054675;28;20049;-68
2022/07/06 09:18:07;;;;;;;4.63;1.10;;;22.20;83.40;;;;;;5054964;28;20034;-67
2022/07/06 09:20:34;;;;;;;3.30;1.00;;;22.40;83.50;;;;;;5054793;28;20055;-67
2022/07/06 09:23:02;;;;;;;2.38;1.05;;;22.40;83.50;;;;;;5054785;28;20550;-67
2022/07/06 09:25:29;;;;;;;1.60;0.93;;;22.10;82.90;;;;;;5054873;28;20037;-67
2022/07/06 09:27:57;;;;;;;5.80;1.27;;;22.30;83.60;;;;;;5054793;28;20035;-67
2022/07/06 09:30:25;;;;;;;9.10;1.52;;;22.70;84.00;;;;;;5054430;28;20381;-67
2022/07/06 09:32:53;;;;;;;5.32;1.20;;;22.50;82.60;;;;;;5054554;28;20128;-67
2022/07/06 09:35:35;;;;;;;3.17;1.20;;;22.50;83.50;;;;;;5054435;28;20051;-68
2022/07/06 09:38:09;;;;;;;2.67;1.00;;;22.40;84.10;;;;;;5054486;28;20041;-67
2022/07/06 09:40:38;;;;;;;5.97;1.20;;;22.50;82.90;;;;;;5054303;28;20040;-67
2022/07/06 09:43:22;;;;;;;2.50;1.10;;;22.60;84.90;;;;;;5054469;28;20099;-67
2022/07/06 09:45:53;;;;;;;1.88;1.10;;;22.40;82.70;;;;;;5054514;28;20500;-67
2022/07/06 09:48:26;;;;;;;4.82;0.90;;;22.30;82.90;;;;;;5054313;28;20075;-67
2022/07/06 09:50:54;;;;;;;1.65;1.10;;;22.50;84.00;;;;;;5054654;28;20150;-67
2022/07/06 09:53:23;;;;;;;3.45;1.25;;;22.70;81.70;;;;;;5054182;28;20036;-67
2022/07/06 09:55:51;;;;;;;3.78;1.20;;;22.50;83.80;;;;;;5054357;28;20120;-67
2022/07/06 09:58:18;;;;;;;1.92;1.10;;;22.70;84.90;;;;;;5054101;28;20037;-67
2022/07/06 10:00:46;;;;;;;2.60;1.05;;;22.50;84.00;;;;;;5053972;28;20041;-67
2022/07/06 10:03:12;;;;;;;4.50;1.10;;;22.60;83.00;;;;;;5053826;28;20396;-67
2022/07/06 10:05:40;;;;;;;3.20;1.13;;;22.70;82.70;;;;;;5053786;28;20043;-67
2022/07/06 10:08:09;;;;;;;3.55;1.17;;;22.50;84.80;;;;;;5054103;28;20399;-67
2022/07/06 10:10:36;;;;;;;2.67;0.95;;;22.60;83.90;;;;;;5054112;28;20073;-67
2022/07/06 10:13:03;;;;;;;5.57;1.33;;;22.80;83.50;;;;;;5054070;28;20432;-67
2022/07/06 10:15:33;;;;;;;5.47;1.33;;;22.70;84.30;;;;;;5053848;28;20094;-67
2022/07/06 10:18:04;;;;;;;3.25;1.02;;;23.20;87.00;;;;;;5054007;28;20539;-67
2022/07/06 10:20:33;;;;;;;5.82;1.13;;;23.20;87.30;;;;;;5053781;28;20408;-67
2022/07/06 10:23:00;;;;;;;4.85;1.42;;;23.40;85.70;;;;;;5053945;28;20037;-67
2022/07/06 10:25:27;;;;;;;2.05;1.23;;;23.10;85.60;;;;;;5053826;28;20484;-67
2022/07/06 10:27:54;;;;;;;3.58;1.30;;;24.10;88.50;;;;;;5057534;28;20511;-67
2022/07/06 10:30:21;;;;;;;2.75;1.00;;;23.40;84.70;;;;;;5053715;28;20134;-68
2022/07/06 10:32:49;;;;;;;4.25;1.20;;;23.10;86.30;;;;;;5053710;28;20044;-67
2022/07/06 10:35:18;;;;;;;4.30;1.17;;;23.30;85.00;;;;;;5053914;28;20460;-67
2022/07/06 10:37:44;;;;;;;6.57;1.50;;;23.30;83.90;;;;;;5053807;28;20098;-67
2022/07/06 10:43:01;;;;;;;2.33;1.20;;;23.30;85.30;;;;;;5073289;28;20113;-67
2022/07/06 10:45:29;;;;;;;2.20;1.20;;;23.40;84.00;;;;;;5073683;28;20029;-67
2022/07/06 10:48:10;;;;;;;3.10;1.30;;;23.30;84.60;;;;;;5073682;28;20051;-67
2022/07/06 10:50:37;;;;;;;4.22;1.60;;;23.10;85.70;;;;;;5073777;28;20186;-68
2022/07/06 10:53:11;;;;;;;3.55;1.13;;;23.10;84.90;;;;;;5073606;28;20045;-68
2022/07/06 10:55:39;;;;;;;5.18;1.08;;;23.40;84.10;;;;;;5073409;28;20478;-67
2022/07/06 10:58:06;;;;;;;5.15;1.20;;;23.40;83.00;;;;;;5073559;28;20044;-68
2022/07/06 11:00:52;;;;;;;1.88;0.90;;;23.30;83.40;;;;;;5075889;28;20102;-68
2022/07/06 11:03:36;;;;;;;4.53;1.30;;;23.70;83.50;;;;;;5077701;28;20063;-68
2022/07/06 11:06:07;;;;;;;3.97;1.25;;;24.30;83.30;;;;;;5077376;28;20036;-68
2022/07/06 11:08:42;;;;;;;6.28;1.35;;;24.60;86.20;;;;;;5077386;28;20040;-67
2022/07/06 11:11:19;;;;;;;4.57;1.13;;;23.90;83.50;;;;;;5077262;28;20048;-68
2022/07/06 11:13:58;;;;;;;1.80;1.30;;;23.80;86.60;;;;;;5077331;28;20032;-68
2022/07/06 11:16:26;;;;;;;2.58;1.40;;;23.60;83.70;;;;;;5077062;28;20534;-68
2022/07/06 11:19:09;;;;;;;3.15;1.20;;;23.30;84.70;;;;;;5077035;28;20029;-68
2022/07/06 11:21:48;;;;;;;2.78;1.30;;;24.10;85.10;;;;;;5077024;28;20125;-67
2022/07/06 11:24:18;;;;;;;3.85;1.25;;;23.70;83.70;;;;;;5076986;28;20506;-67
2022/07/06 11:26:46;;;;;;;4.00;1.52;;;23.60;84.20;;;;;;5076955;28;20033;-67
2022/07/06 11:29:13;;;;;;;3.25;1.30;;;23.70;83.00;;;;;;5076948;28;20534;-67
2022/07/06 11:31:41;;;;;;;1.50;1.00;;;24.50;85.70;;;;;;5076720;28;20495;-68
2022/07/06 11:34:09;;;;;;;3.03;1.50;;;24.50;83.00;;;;;;5076943;28;20067;-67
2022/07/06 11:36:35;;;;;;;1.95;0.80;;;23.90;83.90;;;;;;5076828;28;20126;-68
2022/07/06 11:39:01;;;;;;;7.28;1.98;;;23.60;84.80;;;;;;5076770;28;20048;-68
2022/07/06 11:41:27;;;;;;;7.88;1.30;;;23.60;84.80;;;;;;5076575;28;20082;-67
2022/07/06 11:43:53;;;;;;;3.78;1.10;;;23.40;84.20;;;;;;5076416;28;20127;-67
2022/07/06 11:46:30;;;;;;;3.17;1.02;;;23.70;85.90;;;;;;5076531;28;20045;-67
2022/07/06 11:49:06;;;;;;;5.13;1.48;;;23.70;86.10;;;;;;5076727;28;20496;-68
2022/07/06 11:51:39;;;;;;;4.03;1.30;;;23.60;85.40;;;;;;5076610;28;20047;-67
2022/07/06 11:54:14;;;;;;;4.07;1.38;;;23.90;87.00;;;;;;5076319;28;20072;-67
2022/07/06 11:56:54;;;;;;;3.45;1.30;;;23.90;86.30;;;;;;5076520;28;20127;-68
2022/07/06 11:59:28;;;;;;;6.65;1.17;;;24.00;84.50;;;;;;5076550;28;20558;-67
2022/07/06 12:02:05;;;;;;;2.22;1.20;;;23.90;84.10;;;;;;5076497;28;20140;-67
2022/07/06 12:04:36;;;;;;;2.97;1.30;;;24.40;84.90;;;;;;5076402;28;20133;-67
2022/07/06 12:07:05;;;;;;;2.85;1.30;;;24.20;83.20;;;;;;5076324;28;20112;-67
2022/07/06 12:09:32;;;;;;;6.20;1.40;;;24.30;82.40;;;;;;5076193;28;20041;-67
2022/07/06 12:12:02;;;;;;;1.98;1.00;;;24.00;83.90;;;;;;5075017;28;20047;-67
2022/07/06 12:14:28;;;;;;;3.92;1.15;;;24.00;84.00;;;;;;5076233;28;20519;-67
2022/07/06 12:16:54;;;;;;;9.05;1.65;;;23.70;82.10;;;;;;5076030;28;20040;-67
2022/07/06 12:19:22;;;;;;;7.38;1.25;;;23.70;83.50;;;;;;5076125;28;20070;-67
2022/07/06 12:21:50;;;;;;;3.78;1.00;;;24.10;85.00;;;;;;5076048;28;20044;-68
2022/07/06 12:24:24;;;;;;;1.20;0.80;;;23.80;84.30;;;;;;5075328;28;20067;-67
2022/07/06 12:26:52;;;;;;;5.50;1.45;;;23.60;81.40;;;;;;5075913;28;20086;-67
2022/07/06 12:29:19;;;;;;;2.67;1.10;;;24.00;83.90;;;;;;5075860;28;20040;-67
2022/07/06 12:31:49;;;;;;;4.00;1.30;;;23.90;82.10;;;;;;5075717;28;20063;-67
2022/07/06 12:34:16;;;;;;;5.10;1.00;;;24.20;82.70;;;;;;5074007;28;20115;-67
2022/07/06 12:36:44;;;;;;;2.80;1.10;;;23.90;82.50;;;;;;5073599;28;20040;-67
2022/07/06 12:39:18;;;;;;;4.78;1.23;;;23.80;82.90;;;;;;5075697;28;20445;-67
2022/07/06 12:42:04;;;;;;;3.67;1.23;;;23.80;83.10;;;;;;5075546;28;20419;-67
2022/07/06 12:44:31;;;;;;;1.45;1.02;;;23.90;83.50;;;;;;5075282;28;20085;-67
2022/07/06 12:47:08;;;;;;;5.03;1.00;;;24.20;84.10;;;;;;5075576;28;20048;-67
2022/07/06 12:49:36;;;;;;;2.75;1.17;;;24.00;84.60;;;;;;5075699;28;20550;-67
2022/07/06 12:52:12;;;;;;;6.13;1.60;;;24.50;85.00;;;;;;5075686;28;20041;-67
2022/07/06 12:54:46;;;;;;;5.63;1.35;;;24.40;83.90;;;;;;5075276;28;21023;-67